createdAt,value
2019-04-25T00:01:03.424Z,8.80
2019-04-25T00:03:36.799Z,8.70
2019-04-25T00:06:09.748Z,8.70
2019-04-25T00:08:43.065Z,8.70
2019-04-25T00:11:14.724Z,8.70
2019-04-25T00:13:46.036Z,8.60
2019-04-25T00:16:19.150Z,8.50
2019-04-25T00:18:51.706Z,8.40
2019-04-25T00:21:31.790Z,8.20
2019-04-25T00:24:08.629Z,8.10
2019-04-25T00:26:45.165Z,8.00
2019-04-25T00:29:17.745Z,7.90
2019-04-25T00:31:49.329Z,8.00
2019-04-25T00:34:21.850Z,8.00
2019-04-25T00:36:53.323Z,7.90
2019-04-25T00:39:26.180Z,7.80
2019-04-25T00:41:58.023Z,7.70
2019-04-25T00:44:29.388Z,7.60
2019-04-25T00:47:02.268Z,7.40
2019-04-25T00:49:34.093Z,7.30
2019-04-25T00:52:05.439Z,7.30
2019-04-25T00:54:36.741Z,7.30
2019-04-25T00:57:08.128Z,7.40
2019-04-25T00:59:45.689Z,7.40
2019-04-25T01:02:27.905Z,7.40
2019-04-25T01:04:59.341Z,7.40
2019-04-25T01:07:32.438Z,7.20
2019-04-25T01:10:05.266Z,7.30
2019-04-25T01:12:36.864Z,7.20
2019-04-25T01:15:11.598Z,7.10
2019-04-25T01:17:45.297Z,7.10
2019-04-25T01:20:17.911Z,6.90
2019-04-25T01:22:49.351Z,6.80
2019-04-25T01:25:23.377Z,6.70
2019-04-25T01:27:55.005Z,6.80
2019-04-25T01:30:27.977Z,7.00
2019-04-25T01:32:59.427Z,7.20
2019-04-25T01:35:36.758Z,7.40
2019-04-25T01:38:18.208Z,7.50
2019-04-25T01:40:57.375Z,7.50
2019-04-25T01:44:00.074Z,7.60
2019-04-25T01:46:32.308Z,7.50
2019-04-25T01:49:04.355Z,7.40
2019-04-25T01:51:36.312Z,7.30
2019-04-25T01:54:07.680Z,7.30
2019-04-25T01:56:39.334Z,7.40
2019-04-25T01:59:11.265Z,7.40
2019-04-25T02:01:44.036Z,7.30
2019-04-25T02:04:15.623Z,7.40
2019-04-25T02:06:47.035Z,7.30
2019-04-25T02:09:20.293Z,7.20
2019-04-25T02:12:04.807Z,7.10
2019-04-25T02:14:36.326Z,7.00
2019-04-25T02:17:07.731Z,7.10
2019-04-25T02:19:39.204Z,7.10
2019-04-25T02:22:10.924Z,7.20
2019-04-25T02:24:55.843Z,7.30
2019-04-25T02:27:28.451Z,7.30
2019-04-25T02:30:01.030Z,7.20
2019-04-25T02:32:34.464Z,7.20
2019-04-25T02:35:09.359Z,7.10
2019-04-25T02:37:40.755Z,7.00
2019-04-25T02:40:14.141Z,7.10
2019-04-25T02:42:45.764Z,7.30
2019-04-25T02:45:48.273Z,7.30
2019-04-25T02:48:38.916Z,7.20
2019-04-25T02:51:26.670Z,7.10
2019-04-25T02:53:59.502Z,7.10
2019-04-25T02:56:37.596Z,7.20
2019-04-25T02:59:08.450Z,7.20
2019-04-25T03:01:38.874Z,7.10
2019-04-25T03:04:11.355Z,7.00
2019-04-25T03:06:45.246Z,7.00
2019-04-25T03:09:16.856Z,6.90
2019-04-25T03:11:48.614Z,6.80
2019-04-25T03:14:19.938Z,6.70
2019-04-25T03:16:54.339Z,6.60
2019-04-25T03:19:34.223Z,6.50
2019-04-25T03:22:11.063Z,6.50
2019-04-25T03:24:40.180Z,6.50
2019-04-25T03:27:12.034Z,6.60
2019-04-25T03:29:55.163Z,6.70
2019-04-25T03:32:28.455Z,6.70
2019-04-25T03:35:00.511Z,6.70
2019-04-25T03:37:33.068Z,6.60
2019-04-25T03:40:06.621Z,6.40
2019-04-25T03:42:39.618Z,6.20
2019-04-25T03:45:13.761Z,6.20
2019-04-25T03:47:45.759Z,6.20
2019-04-25T03:50:17.344Z,6.20
2019-04-25T03:52:48.760Z,6.30
2019-04-25T03:55:20.297Z,6.50
2019-04-25T03:57:51.627Z,6.70
2019-04-25T04:00:24.120Z,6.70
2019-04-25T04:02:55.546Z,6.70
2019-04-25T04:05:27.297Z,6.80
2019-04-25T04:07:58.980Z,6.90
2019-04-25T04:10:30.191Z,6.90
2019-04-25T04:13:01.582Z,6.90
2019-04-25T04:15:33.591Z,6.80
2019-04-25T04:18:17.257Z,6.80
2019-04-25T04:21:16.185Z,6.80
2019-04-25T04:24:04.371Z,6.70
2019-04-25T04:26:35.846Z,6.70
2019-04-25T04:29:07.816Z,6.60
2019-04-25T04:31:39.345Z,6.50
2019-04-25T04:34:10.678Z,6.50
2019-04-25T04:36:43.689Z,6.50
2019-04-25T04:39:16.810Z,6.50
2019-04-25T04:41:48.035Z,6.50
2019-04-25T04:44:19.350Z,6.60
2019-04-25T04:46:50.718Z,6.60
2019-04-25T04:49:23.504Z,6.70
2019-04-25T04:51:56.685Z,6.80
2019-04-25T04:54:28.012Z,6.90
2019-04-25T04:56:59.448Z,7.00
2019-04-25T04:59:31.061Z,7.10
2019-04-25T05:02:24.750Z,7.20
2019-04-25T05:05:24.811Z,7.30
2019-04-25T05:08:18.767Z,7.40
2019-04-25T05:10:50.251Z,7.50
2019-04-25T05:13:22.063Z,7.60
2019-04-25T05:15:53.403Z,7.70
2019-04-25T05:18:34.625Z,7.70
2019-04-25T05:20:57.990Z,7.90
2019-04-25T05:23:29.194Z,7.90
2019-04-25T05:26:00.606Z,8.00
2019-04-25T05:28:33.306Z,8.10
2019-04-25T05:31:19.294Z,8.30
2019-04-25T05:33:50.807Z,8.40
2019-04-25T05:36:23.864Z,8.70
2019-04-25T05:38:55.563Z,8.90
2019-04-25T05:41:38.925Z,9.70
2019-04-25T05:44:10.265Z,9.50
2019-04-25T05:46:41.643Z,9.70
2019-04-25T05:49:13.858Z,10.00
2019-04-25T05:51:45.276Z,10.30
2019-04-25T05:54:16.589Z,10.60
2019-04-25T05:56:47.807Z,10.80
2019-04-25T05:59:19.523Z,11.00
2019-04-25T06:01:50.894Z,11.30
2019-04-25T06:04:24.643Z,11.50
2019-04-25T06:06:55.713Z,11.80
2019-04-25T06:09:48.833Z,12.00
2019-04-25T06:12:28.034Z,12.40
2019-04-25T06:14:59.419Z,12.60
2019-04-25T06:17:38.881Z,13.00
2019-04-25T06:20:13.448Z,13.20
2019-04-25T06:22:58.636Z,13.50
2019-04-25T06:25:36.318Z,13.70
2019-04-25T06:28:05.836Z,13.90
2019-04-25T06:30:37.361Z,14.20
2019-04-25T06:33:09.180Z,14.50
2019-04-25T06:35:40.613Z,14.60
2019-04-25T06:38:13.361Z,14.70
2019-04-25T06:40:44.888Z,14.90
2019-04-25T06:43:16.389Z,15.10
2019-04-25T06:45:55.703Z,15.20
2019-04-25T06:48:45.970Z,15.60
2019-04-25T06:51:17.335Z,15.80
2019-04-25T06:53:48.693Z,16.00
2019-04-25T06:56:20.054Z,16.10
2019-04-25T06:58:51.340Z,16.20
2019-04-25T07:01:25.113Z,16.30
2019-04-25T07:03:55.882Z,16.40
2019-04-25T07:06:27.294Z,16.40
2019-04-25T07:08:58.655Z,16.70
2019-04-25T07:11:30.511Z,17.00
2019-04-25T07:14:01.723Z,17.10
2019-04-25T07:16:34.423Z,17.30
2019-04-25T07:19:06.653Z,17.50
2019-04-25T07:21:38.052Z,17.70
2019-04-25T07:24:09.474Z,17.70
2019-04-25T07:27:03.801Z,17.90
2019-04-25T07:29:51.827Z,17.90
2019-04-25T07:32:35.774Z,18.10
2019-04-25T07:35:07.817Z,18.40
2019-04-25T07:37:41.474Z,18.60
2019-04-25T07:40:13.901Z,18.80
2019-04-25T07:42:45.463Z,19.20
2019-04-25T07:45:18.799Z,19.20
2019-04-25T07:47:50.234Z,19.30
2019-04-25T07:50:21.883Z,19.60
2019-04-25T07:52:53.842Z,19.80
2019-04-25T07:55:25.506Z,19.90
2019-04-25T07:57:56.881Z,19.90
2019-04-25T08:00:29.656Z,20.10
2019-04-25T08:03:01.074Z,20.50
2019-04-25T08:05:35.310Z,20.80
2019-04-25T08:08:05.687Z,21.10
2019-04-25T08:10:59.576Z,21.20
2019-04-25T08:13:39.866Z,21.30
2019-04-25T08:16:14.575Z,21.10
2019-04-25T08:18:47.924Z,21.40
2019-04-25T08:21:19.622Z,21.70
2019-04-25T08:23:53.325Z,21.90
2019-04-25T08:26:25.750Z,22.00
2019-04-25T08:28:57.879Z,22.40
2019-04-25T08:31:30.367Z,22.90
2019-04-25T08:34:03.612Z,23.30
2019-04-25T08:36:37.094Z,23.00
2019-04-25T08:39:11.297Z,22.80
2019-04-25T08:41:45.358Z,22.90
2019-04-25T08:44:16.090Z,23.30
2019-04-25T08:46:48.800Z,23.60
2019-04-25T08:49:38.399Z,23.70
2019-04-25T08:52:10.436Z,23.70
2019-04-25T08:55:00.929Z,23.90
2019-04-25T08:57:51.765Z,23.70
2019-04-25T09:00:36.151Z,23.90
2019-04-25T09:03:11.407Z,24.20
2019-04-25T09:05:46.243Z,24.10
2019-04-25T09:08:18.168Z,24.10
2019-04-25T09:10:49.520Z,24.30
2019-04-25T09:13:21.039Z,24.00
2019-04-25T09:15:54.017Z,24.20
2019-04-25T09:18:25.917Z,24.00
2019-04-25T09:20:57.283Z,23.90
2019-04-25T09:23:29.736Z,24.10
2019-04-25T09:26:01.207Z,24.40
2019-04-25T09:28:35.053Z,24.50
2019-04-25T09:31:05.996Z,25.00
2019-04-25T09:33:37.626Z,25.50
2019-04-25T09:36:09.706Z,25.30
2019-04-25T09:38:41.157Z,25.40
2019-04-25T09:41:13.980Z,25.50
2019-04-25T09:43:46.884Z,25.70
2019-04-25T09:46:31.357Z,26.00
2019-04-25T09:49:08.607Z,26.10
2019-04-25T09:51:44.616Z,26.40
2019-04-25T09:54:34.021Z,26.80
2019-04-25T09:57:34.143Z,27.00
2019-04-25T10:00:09.777Z,27.20
2019-04-25T10:02:41.224Z,27.30
2019-04-25T10:05:13.964Z,27.30
2019-04-25T10:07:46.314Z,27.60
2019-04-25T10:10:18.832Z,27.40
2019-04-25T10:12:50.966Z,27.20
2019-04-25T10:15:59.599Z,27.50
2019-04-25T10:18:33.465Z,27.90
2019-04-25T10:21:08.490Z,28.30
2019-04-25T10:23:42.134Z,28.50
2019-04-25T10:26:14.447Z,28.10
2019-04-25T10:28:45.874Z,27.80
2019-04-25T10:31:17.148Z,27.90
2019-04-25T10:33:48.701Z,27.80
2019-04-25T10:36:20.891Z,27.90
2019-04-25T10:39:04.281Z,28.20
2019-04-25T10:41:25.442Z,28.50
2019-04-25T10:43:57.067Z,28.50
2019-04-25T10:46:28.612Z,28.60
2019-04-25T10:49:00.052Z,28.40
2019-04-25T10:51:31.577Z,28.00
2019-04-25T10:54:04.182Z,28.40
2019-04-25T10:56:35.810Z,28.20
2019-04-25T10:59:07.257Z,28.80
2019-04-25T11:01:38.710Z,29.30
2019-04-25T11:04:29.014Z,29.70
2019-04-25T11:07:00.762Z,29.80
2019-04-25T11:09:33.775Z,29.70
2019-04-25T11:12:08.741Z,29.50
2019-04-25T11:14:40.919Z,28.80
2019-04-25T11:17:13.192Z,28.80
2019-04-25T11:19:45.475Z,29.00
2019-04-25T11:22:16.989Z,29.20
2019-04-25T11:24:48.662Z,29.30
2019-04-25T11:27:20.574Z,29.20
2019-04-25T11:29:53.548Z,29.20
2019-04-25T11:32:28.373Z,28.90
2019-04-25T11:34:59.958Z,29.10
2019-04-25T11:37:34.296Z,29.20
2019-04-25T11:40:19.502Z,29.80
2019-04-25T11:42:51.217Z,29.90
2019-04-25T11:45:23.669Z,29.30
2019-04-25T11:47:56.164Z,29.40
2019-04-25T11:50:28.473Z,29.60
2019-04-25T11:53:00.919Z,29.60
2019-04-25T11:55:32.961Z,29.90
2019-04-25T11:58:04.516Z,30.10
2019-04-25T12:00:36.787Z,30.00
2019-04-25T12:03:08.210Z,29.80
2019-04-25T12:05:39.720Z,30.20
2019-04-25T12:08:13.469Z,30.30
2019-04-25T12:10:45.781Z,30.00
2019-04-25T12:13:20.427Z,29.70
2019-04-25T12:15:51.932Z,29.20
2019-04-25T12:18:23.650Z,28.30
2019-04-25T12:20:57.973Z,28.10
2019-04-25T12:23:30.174Z,28.40
2019-04-25T12:26:01.521Z,28.40
2019-04-25T12:28:33.889Z,28.20
2019-04-25T12:31:05.340Z,28.80
2019-04-25T12:33:37.085Z,29.10
2019-04-25T12:36:08.526Z,29.20
2019-04-25T12:38:40.546Z,29.30
2019-04-25T12:41:11.825Z,29.30
2019-04-25T12:43:48.346Z,29.60
2019-04-25T12:46:26.061Z,29.70
2019-04-25T12:48:57.725Z,29.70
2019-04-25T12:51:29.154Z,29.70
2019-04-25T12:54:00.698Z,29.20
2019-04-25T12:56:32.172Z,29.10
2019-04-25T12:59:04.592Z,29.40
2019-04-25T13:01:36.185Z,30.00
2019-04-25T13:04:07.633Z,30.50
2019-04-25T13:06:39.059Z,31.20
2019-04-25T13:09:13.274Z,30.20
2019-04-25T13:11:44.785Z,29.60
2019-04-25T13:14:16.293Z,29.30
2019-04-25T13:16:47.573Z,28.80
2019-04-25T13:19:23.965Z,28.40
2019-04-25T13:21:52.168Z,27.90
2019-04-25T13:24:23.613Z,28.20
2019-04-25T13:27:03.961Z,29.20
2019-04-25T13:29:45.361Z,30.00
2019-04-25T13:32:27.927Z,31.10
2019-04-25T13:35:00.975Z,31.70
2019-04-25T13:37:34.095Z,31.90
2019-04-25T13:40:06.373Z,31.90
2019-04-25T13:42:40.693Z,32.00
2019-04-25T13:45:14.310Z,32.20
2019-04-25T13:47:45.753Z,32.50
2019-04-25T13:50:17.919Z,32.40
2019-04-25T13:52:49.177Z,32.00
2019-04-25T13:55:21.321Z,31.90
2019-04-25T13:57:54.670Z,31.40
2019-04-25T14:00:27.791Z,30.60
2019-04-25T14:03:03.029Z,29.70
2019-04-25T14:05:35.298Z,28.70
2019-04-25T14:08:07.029Z,28.20
2019-04-25T14:10:39.089Z,27.70
2019-04-25T14:13:11.104Z,27.40
2019-04-25T14:15:47.910Z,27.00
2019-04-25T14:18:53.556Z,27.10
2019-04-25T14:21:26.125Z,27.20
2019-04-25T14:23:58.727Z,27.10
2019-04-25T14:26:31.290Z,26.70
2019-04-25T14:29:04.249Z,26.50
2019-04-25T14:31:45.460Z,26.30
2019-04-25T14:34:09.985Z,26.10
2019-04-25T14:36:41.658Z,26.00
2019-04-25T14:39:15.137Z,26.10
2019-04-25T14:41:49.785Z,25.90
2019-04-25T14:44:22.281Z,25.80
2019-04-25T14:46:55.051Z,25.60
2019-04-25T14:49:26.998Z,25.50
2019-04-25T14:51:58.574Z,25.50
2019-04-25T14:54:36.982Z,25.40
2019-04-25T14:57:16.915Z,25.30
2019-04-25T14:59:48.596Z,25.30
2019-04-25T15:02:22.638Z,25.40
2019-04-25T15:04:53.958Z,25.60
2019-04-25T15:07:25.413Z,25.90
2019-04-25T15:09:56.859Z,26.30
2019-04-25T15:12:29.350Z,26.80
2019-04-25T15:15:00.782Z,26.90
2019-04-25T15:17:43.909Z,27.30
2019-04-25T15:20:06.990Z,27.90
2019-04-25T15:22:38.961Z,28.80
2019-04-25T15:25:10.781Z,29.70
2019-04-25T15:27:42.194Z,29.70
2019-04-25T15:30:18.857Z,29.70
2019-04-25T15:32:50.391Z,29.50
2019-04-25T15:35:24.642Z,29.30
2019-04-25T15:38:05.066Z,29.30
2019-04-25T15:40:42.058Z,29.20
2019-04-25T15:43:36.410Z,29.30
2019-04-25T15:46:16.406Z,29.30
2019-04-25T15:48:48.217Z,29.10
2019-04-25T15:51:19.600Z,29.10
2019-04-25T15:53:50.924Z,29.00
2019-04-25T15:56:22.374Z,28.80
2019-04-25T15:58:54.175Z,28.90
2019-04-25T16:01:26.497Z,28.90
2019-04-25T16:03:58.211Z,28.50
2019-04-25T16:06:30.055Z,28.30
2019-04-25T16:09:01.460Z,28.00
2019-04-25T16:11:35.103Z,27.80
2019-04-25T16:14:06.665Z,27.90
2019-04-25T16:16:38.435Z,28.10
2019-04-25T16:19:10.006Z,28.40
2019-04-25T16:21:42.235Z,28.70
2019-04-25T16:24:13.733Z,28.80
2019-04-25T16:26:45.101Z,28.50
2019-04-25T16:29:16.376Z,28.20
2019-04-25T16:31:47.813Z,28.10
2019-04-25T16:34:19.150Z,27.60
2019-04-25T16:36:50.585Z,26.90
2019-04-25T16:39:24.122Z,26.50
2019-04-25T16:41:55.619Z,26.60
2019-04-25T16:44:27.641Z,26.70
2019-04-25T16:47:00.079Z,26.80
2019-04-25T16:49:32.558Z,26.90
2019-04-25T16:52:05.754Z,26.80
2019-04-25T16:54:38.080Z,26.60
2019-04-25T16:57:09.540Z,26.40
2019-04-25T16:59:40.798Z,26.30
2019-04-25T17:02:12.325Z,26.20
2019-04-25T17:04:43.899Z,25.80
2019-04-25T17:07:15.754Z,25.70
2019-04-25T17:09:47.365Z,25.60
2019-04-25T17:12:19.720Z,25.60
2019-04-25T17:15:09.962Z,25.50
2019-04-25T17:18:04.423Z,25.50
2019-04-25T17:20:40.611Z,25.40
2019-04-25T17:23:12.982Z,25.40
2019-04-25T17:25:44.395Z,25.30
2019-04-25T17:28:17.422Z,25.20
2019-04-25T17:30:52.572Z,25.10
2019-04-25T17:33:35.683Z,24.90
2019-04-25T17:36:15.556Z,24.70
2019-04-25T17:38:54.457Z,24.30
2019-04-25T17:41:26.151Z,23.90
2019-04-25T17:43:57.519Z,23.40
2019-04-25T17:46:28.736Z,23.10
2019-04-25T17:49:00.027Z,22.70
2019-04-25T17:51:32.263Z,22.40
2019-04-25T17:54:05.220Z,22.00
2019-04-25T17:56:36.649Z,21.70
2019-04-25T17:59:09.143Z,21.40
2019-04-25T18:01:40.745Z,21.20
2019-04-25T18:04:12.405Z,20.90
2019-04-25T18:06:44.384Z,20.60
2019-04-25T18:09:15.867Z,20.30
2019-04-25T18:11:47.666Z,20.10
2019-04-25T18:14:19.009Z,19.90
2019-04-25T18:16:52.413Z,19.20
2019-04-25T18:19:29.808Z,19.40
2019-04-25T18:22:12.215Z,19.20
2019-04-25T18:25:05.937Z,19.00
2019-04-25T18:27:56.185Z,18.90
2019-04-25T18:30:27.957Z,18.80
2019-04-25T18:33:11.916Z,18.70
2019-04-25T18:35:44.604Z,18.60
2019-04-25T18:38:23.459Z,18.50
2019-04-25T18:41:02.195Z,18.30
2019-04-25T18:43:47.127Z,18.10
2019-04-25T18:46:40.503Z,18.00
2019-04-25T18:49:12.392Z,17.90
2019-04-25T18:51:55.103Z,17.70
2019-04-25T18:54:30.619Z,17.60
2019-04-25T18:57:12.375Z,17.60
2019-04-25T19:00:05.979Z,17.50
2019-04-25T19:03:00.787Z,17.30
2019-04-25T19:05:57.276Z,17.10
2019-04-25T19:08:28.992Z,17.00
2019-04-25T19:11:00.823Z,16.80
2019-04-25T19:13:33.071Z,16.70
2019-04-25T19:16:04.581Z,16.70
2019-04-25T19:18:36.057Z,16.60
2019-04-25T19:21:08.279Z,16.60
2019-04-25T19:23:41.743Z,16.60
2019-04-25T19:26:14.260Z,16.50
2019-04-25T19:28:46.861Z,16.40
2019-04-25T19:31:18.371Z,16.40
2019-04-25T19:33:49.930Z,16.30
2019-04-25T19:36:21.528Z,16.20
2019-04-25T19:38:53.537Z,16.20
2019-04-25T19:41:31.326Z,16.10
2019-04-25T19:44:08.205Z,16.10
2019-04-25T19:46:44.906Z,16.00
2019-04-25T19:49:16.682Z,16.00
2019-04-25T19:51:48.051Z,16.00
2019-04-25T19:54:19.508Z,15.90
2019-04-25T19:56:51.770Z,15.90
2019-04-25T19:59:23.614Z,16.00
2019-04-25T20:01:57.073Z,15.90
2019-04-25T20:04:37.958Z,15.80
2019-04-25T20:07:21.273Z,15.70
2019-04-25T20:10:21.073Z,15.60
2019-04-25T20:12:53.529Z,15.60
2019-04-25T20:15:33.405Z,15.50
2019-04-25T20:18:05.989Z,15.50
2019-04-25T20:20:37.509Z,15.60
2019-04-25T20:23:08.825Z,15.60
2019-04-25T20:25:40.291Z,15.50
2019-04-25T20:28:11.824Z,15.40
2019-04-25T20:30:44.537Z,15.40
2019-04-25T20:33:16.988Z,15.50
2019-04-25T20:35:49.387Z,15.80
2019-04-25T20:38:20.722Z,15.70
2019-04-25T20:40:52.674Z,15.60
2019-04-25T20:43:24.307Z,15.50
2019-04-25T20:45:56.526Z,15.40
2019-04-25T20:48:28.051Z,15.30
2019-04-25T20:50:59.801Z,15.10
2019-04-25T20:53:31.479Z,15.10
2019-04-25T20:56:03.146Z,15.00
2019-04-25T20:58:53.516Z,15.00
2019-04-25T21:01:44.585Z,14.90
2019-04-25T21:04:34.834Z,14.80
2019-04-25T21:07:13.169Z,14.40
2019-04-25T21:09:44.536Z,14.20
2019-04-25T21:12:15.976Z,14.10
2019-04-25T21:15:06.623Z,13.90
2019-04-25T21:18:06.264Z,13.90
2019-04-25T21:20:37.800Z,13.80
2019-04-25T21:23:09.086Z,13.80
2019-04-25T21:25:40.457Z,13.70
2019-04-25T21:28:13.483Z,13.80
2019-04-25T21:30:44.924Z,13.80
2019-04-25T21:33:16.549Z,13.70
2019-04-25T21:35:48.099Z,13.70
2019-04-25T21:38:20.060Z,14.60
2019-04-25T21:41:10.188Z,13.90
2019-04-25T21:43:46.983Z,13.90
2019-04-25T21:46:19.703Z,13.80
2019-04-25T21:48:53.407Z,13.80
2019-04-25T21:51:34.264Z,13.70
2019-04-25T21:54:05.907Z,13.60
2019-04-25T21:56:37.615Z,13.50
2019-04-25T21:59:09.270Z,13.40
2019-04-25T22:01:41.947Z,13.30
2019-04-25T22:04:13.580Z,13.40
2019-04-25T22:06:45.452Z,13.50
2019-04-25T22:09:19.381Z,13.30
2019-04-25T22:11:51.477Z,13.20
2019-04-25T22:14:23.438Z,13.10
2019-04-25T22:16:55.478Z,13.00
2019-04-25T22:19:28.054Z,13.00
2019-04-25T22:22:00.596Z,13.00
2019-04-25T22:24:32.129Z,12.90
2019-04-25T22:27:06.174Z,13.00
2019-04-25T22:29:42.020Z,13.10
2019-04-25T22:32:27.870Z,13.00
2019-04-25T22:35:07.971Z,12.80
2019-04-25T22:37:39.510Z,12.60
2019-04-25T22:40:11.635Z,12.50
2019-04-25T22:42:43.427Z,12.50
2019-04-25T22:45:15.195Z,12.40
2019-04-25T22:47:46.905Z,12.30
2019-04-25T22:50:18.466Z,12.40
2019-04-25T22:52:50.191Z,12.40
2019-04-25T22:55:21.716Z,12.50
2019-04-25T22:57:53.014Z,12.70
2019-04-25T23:00:28.849Z,12.70
2019-04-25T23:03:05.892Z,12.90
2019-04-25T23:05:42.834Z,13.00
2019-04-25T23:08:14.550Z,12.80
2019-04-25T23:10:46.247Z,12.60
2019-04-25T23:13:19.246Z,12.40
2019-04-25T23:15:50.551Z,12.20
2019-04-25T23:18:22.394Z,11.90
2019-04-25T23:20:53.838Z,11.80
2019-04-25T23:23:25.465Z,11.70
2019-04-25T23:26:08.980Z,11.70
2019-04-25T23:28:42.592Z,11.60
2019-04-25T23:31:18.739Z,11.40
2019-04-25T23:33:51.127Z,11.30
2019-04-25T23:36:22.841Z,11.40
2019-04-25T23:38:54.364Z,11.70
2019-04-25T23:41:26.211Z,11.90
2019-04-25T23:43:57.579Z,12.00
2019-04-25T23:46:29.545Z,12.50
2019-04-25T23:49:00.944Z,12.60
2019-04-25T23:51:32.638Z,12.70
2019-04-25T23:54:05.304Z,12.80
2019-04-25T23:56:36.961Z,12.70
2019-04-25T23:59:11.489Z,12.70
